Time;durP1;ratioP1;P1;durP2;ratioP2;P2;SDS_P1;SDS_P2;PMS_P1;PMS_P2;Temp;Humidity;BMP_temperature;BMP_pressure;BME280_temperature;BME280_humidity;BME280_pressure;Samples;Min_cycle;Max_cycle;Signal;HPM_P1;HPM_P2
2023/07/02 00:01:58;;;;;;;8.20;3.75;;;;;;;;;;4937647;29;20031;-62
2023/07/02 00:04:24;;;;;;;7.35;3.60;;;;;;;;;;4937645;29;20092;-62
2023/07/02 00:06:50;;;;;;;5.50;3.20;;;;;;;;;;4936727;29;20020;-61
2023/07/02 00:09:15;;;;;;;8.93;3.78;;;;;;;;;;4938945;29;20027;-62
2023/07/02 00:11:45;;;;;;;6.65;3.30;;;;;;;;;;4937138;29;20024;-62
2023/07/02 00:14:11;;;;;;;7.10;3.20;;;;;;;;;;4938253;29;20372;-61
2023/07/02 00:16:38;;;;;;;8.63;3.70;;;;;;;;;;4938042;29;20023;-61
2023/07/02 00:19:04;;;;;;;8.57;3.47;;;;;;;;;;4936496;29;20770;-62
2023/07/02 00:21:32;;;;;;;9.52;3.47;;;;;;;;;;4936824;29;20019;-62
2023/07/02 00:23:58;;;;;;;9.35;3.60;;;;;;;;;;4935460;29;20031;-61
2023/07/02 00:26:24;;;;;;;8.52;3.65;;;;;;;;;;4937434;29;20016;-61
2023/07/02 00:28:50;;;;;;;10.23;3.10;;;;;;;;;;4940811;29;20377;-62
2023/07/02 00:31:15;;;;;;;7.90;3.70;;;;;;;;;;4939106;29;20023;-62
2023/07/02 00:33:40;;;;;;;7.70;3.78;;;;;;;;;;4936758;29;20094;-62
2023/07/02 00:36:05;;;;;;;8.35;3.55;;;;;;;;;;4936647;29;20041;-62
2023/07/02 00:38:31;;;;;;;9.02;3.72;;;;;;;;;;4939644;29;20417;-61
2023/07/02 00:40:56;;;;;;;6.38;3.33;;;;;;;;;;4935716;29;20032;-62
2023/07/02 00:43:22;;;;;;;10.68;4.10;;;;;;;;;;4931715;29;20019;-62
2023/07/02 00:45:48;;;;;;;9.13;4.45;;;;;;;;;;4936198;29;20047;-62
2023/07/02 00:48:13;;;;;;;10.65;4.60;;;;;;;;;;4935132;29;20031;-62
2023/07/02 00:50:39;;;;;;;10.10;4.32;;;;;;;;;;4935172;29;20035;-62
2023/07/02 00:53:04;;;;;;;9.82;4.97;;;;;;;;;;4936776;29;20597;-62
2023/07/02 00:55:29;;;;;;;10.70;5.10;;;;;;;;;;4933883;29;20397;-62
2023/07/02 00:57:56;;;;;;;13.68;5.97;;;;;;;;;;4934321;29;20031;-62
2023/07/02 01:03:24;;;;;;;9.55;6.07;;;;;;;;;;4952404;23;20113;-69
2023/07/02 01:05:49;;;;;;;10.40;5.13;;;;;;;;;;4992362;28;20022;-69
2023/07/02 01:08:15;;;;;;;12.00;5.40;;;;;;;;;;4993234;28;20030;-70
2023/07/02 01:10:42;;;;;;;11.07;5.40;;;;;;;;;;4992796;28;20597;-70
2023/07/02 01:13:14;;;;;;;12.88;4.85;;;;;;;;;;4994530;28;20034;-70
2023/07/02 01:15:39;;;;;;;10.93;5.57;;;;;;;;;;4991765;28;20029;-70
2023/07/02 01:18:05;;;;;;;13.55;5.43;;;;;;;;;;4993002;28;20042;-70
2023/07/02 01:20:31;;;;;;;13.82;5.30;;;;;;;;;;4992425;28;20095;-70
2023/07/02 01:22:57;;;;;;;17.05;5.97;;;;;;;;;;4993058;28;20027;-70
2023/07/02 01:25:24;;;;;;;15.20;5.45;;;;;;;;;;4994114;28;20029;-70
2023/07/02 01:27:49;;;;;;;12.48;5.32;;;;;;;;;;4993819;28;20022;-70
2023/07/02 01:30:15;;;;;;;17.63;6.38;;;;;;;;;;4991593;28;20822;-70
2023/07/02 01:32:41;;;;;;;13.73;6.32;;;;;;;;;;4992923;28;20113;-70
2023/07/02 01:35:06;;;;;;;12.07;5.70;;;;;;;;;;4993125;28;20490;-70
2023/07/02 01:37:37;;;;;;;13.95;5.93;;;;;;;;;;4992951;28;20026;-70
2023/07/02 01:40:03;;;;;;;14.50;6.28;;;;;;;;;;4992684;28;20394;-70
2023/07/02 01:42:28;;;;;;;16.13;6.65;;;;;;;;;;4991451;28;20014;-70
2023/07/02 01:44:53;;;;;;;20.70;7.57;;;;;;;;;;4992967;28;20021;-70
2023/07/02 01:47:19;;;;;;;15.95;7.68;;;;;;;;;;4990316;28;20471;-70
2023/07/02 01:49:45;;;;;;;15.20;7.60;;;;;;;;;;4991792;28;20113;-70
2023/07/02 01:52:10;;;;;;;14.25;7.93;;;;;;;;;;4990861;28;20110;-70
2023/07/02 01:54:36;;;;;;;14.20;7.60;;;;;;;;;;4992941;28;20018;-70
2023/07/02 01:57:02;;;;;;;13.88;7.85;;;;;;;;;;4991851;28;20509;-70
2023/07/02 01:59:27;;;;;;;13.45;8.55;;;;;;;;;;4992119;28;20022;-70
2023/07/02 02:01:53;;;;;;;19.23;8.77;;;;;;;;;;4991351;28;20085;-70
2023/07/02 02:04:18;;;;;;;16.63;9.32;;;;;;;;;;4980935;28;20042;-70
2023/07/02 02:06:43;;;;;;;15.18;8.98;;;;;;;;;;4984143;28;20027;-70
2023/07/02 02:09:09;;;;;;;16.02;9.35;;;;;;;;;;4982207;28;20035;-70
2023/07/02 02:11:38;;;;;;;17.17;9.75;;;;;;;;;;4992818;28;20014;-70
2023/07/02 02:14:03;;;;;;;17.17;9.88;;;;;;;;;;4988116;28;20019;-70
2023/07/02 02:16:28;;;;;;;18.65;9.88;;;;;;;;;;4986224;28;20030;-70
2023/07/02 02:18:54;;;;;;;16.00;9.85;;;;;;;;;;4986529;28;20476;-70
2023/07/02 02:21:19;;;;;;;18.70;10.00;;;;;;;;;;4986222;28;20023;-70
2023/07/02 02:23:45;;;;;;;17.58;10.18;;;;;;;;;;4981130;28;20019;-70
2023/07/02 02:26:10;;;;;;;13.75;9.50;;;;;;;;;;4986860;28;20018;-70
2023/07/02 02:28:35;;;;;;;16.25;9.10;;;;;;;;;;4984335;28;20030;-70
2023/07/02 02:31:01;;;;;;;13.23;8.48;;;;;;;;;;4976533;28;20483;-70
2023/07/02 02:33:26;;;;;;;15.77;8.65;;;;;;;;;;4979867;28;20093;-70
2023/07/02 02:35:51;;;;;;;17.27;8.77;;;;;;;;;;4974007;28;20077;-70
2023/07/02 02:38:17;;;;;;;15.27;7.70;;;;;;;;;;4976649;28;20037;-70
2023/07/02 02:40:42;;;;;;;13.65;8.05;;;;;;;;;;4978427;28;20018;-70
2023/07/02 02:43:07;;;;;;;15.82;7.32;;;;;;;;;;4982646;28;20509;-70
2023/07/02 02:45:33;;;;;;;12.80;7.68;;;;;;;;;;4983054;28;20133;-71
2023/07/02 02:47:58;;;;;;;12.73;7.68;;;;;;;;;;4992061;28;20080;-65
2023/07/02 02:50:23;;;;;;;14.00;7.35;;;;;;;;;;4984969;28;20041;-65
2023/07/02 02:52:48;;;;;;;12.10;7.05;;;;;;;;;;4987279;28;20431;-65
2023/07/02 02:55:14;;;;;;;18.08;7.95;;;;;;;;;;4991709;28;20025;-65
2023/07/02 02:57:39;;;;;;;13.45;6.30;;;;;;;;;;4982484;28;20030;-65
2023/07/02 03:00:06;;;;;;;14.88;6.07;;;;;;;;;;4976300;28;20528;-66
2023/07/02 03:02:31;;;;;;;9.18;5.82;;;;;;;;;;4990961;28;20018;-65
2023/07/02 03:04:56;;;;;;;10.15;6.07;;;;;;;;;;4978515;28;20458;-65
2023/07/02 03:07:22;;;;;;;13.10;6.05;;;;;;;;;;4983100;28;20033;-66
2023/07/02 03:09:47;;;;;;;11.55;6.13;;;;;;;;;;4979852;28;20031;-65
2023/07/02 03:12:12;;;;;;;13.68;6.63;;;;;;;;;;4992073;28;20054;-65
2023/07/02 03:14:38;;;;;;;10.52;6.10;;;;;;;;;;4988597;28;20509;-65
2023/07/02 03:17:03;;;;;;;16.38;6.15;;;;;;;;;;4984316;28;20121;-65
2023/07/02 03:19:28;;;;;;;16.55;6.60;;;;;;;;;;4973585;28;20010;-65
2023/07/02 03:21:54;;;;;;;12.18;5.93;;;;;;;;;;4978517;28;20019;-65
2023/07/02 03:24:19;;;;;;;12.13;5.70;;;;;;;;;;4980113;28;20037;-65
2023/07/02 03:26:44;;;;;;;10.55;5.93;;;;;;;;;;4978594;28;20023;-66
2023/07/02 03:29:10;;;;;;;11.60;5.70;;;;;;;;;;4979530;28;20023;-65
2023/07/02 03:31:35;;;;;;;12.40;5.70;;;;;;;;;;4986007;28;20027;-66
2023/07/02 03:34:06;;;;;;;10.88;5.80;;;;;;;;;;4995021;28;20426;-65
2023/07/02 03:36:31;;;;;;;14.37;6.03;;;;;;;;;;4985067;28;20093;-65
2023/07/02 03:38:57;;;;;;;11.15;5.70;;;;;;;;;;4985138;28;20117;-65
2023/07/02 03:41:22;;;;;;;13.40;5.90;;;;;;;;;;4984130;28;20017;-65
2023/07/02 03:43:47;;;;;;;15.93;6.00;;;;;;;;;;4983730;28;20022;-66
2023/07/02 03:46:13;;;;;;;13.48;4.88;;;;;;;;;;4981131;28;20034;-65
2023/07/02 03:48:39;;;;;;;11.45;5.00;;;;;;;;;;4977471;28;20467;-66
2023/07/02 03:51:04;;;;;;;13.75;5.32;;;;;;;;;;4982534;28;20089;-65
2023/07/02 03:53:29;;;;;;;14.07;5.63;;;;;;;;;;4991414;28;20018;-65
2023/07/02 03:55:55;;;;;;;12.80;5.13;;;;;;;;;;4981156;28;20022;-65
2023/07/02 03:58:20;;;;;;;14.63;5.45;;;;;;;;;;4986478;28;20050;-65
2023/07/02 04:00:49;;;;;;;12.77;5.10;;;;;;;;;;4985264;28;20025;-65
2023/07/02 04:03:14;;;;;;;16.17;5.50;;;;;;;;;;4980907;28;20430;-65
2023/07/02 04:05:40;;;;;;;12.70;5.47;;;;;;;;;;4983993;28;20042;-65
2023/07/02 04:08:05;;;;;;;14.35;5.88;;;;;;;;;;4981162;28;20041;-65
2023/07/02 04:10:30;;;;;;;12.82;5.00;;;;;;;;;;4977014;28;20475;-66
2023/07/02 04:12:55;;;;;;;15.80;5.70;;;;;;;;;;4989572;28;20062;-66
2023/07/02 04:15:21;;;;;;;17.63;4.90;;;;;;;;;;4993047;28;20095;-65
2023/07/02 04:17:46;;;;;;;15.45;5.10;;;;;;;;;;4992933;28;20026;-65
2023/07/02 04:20:11;;;;;;;16.25;5.75;;;;;;;;;;4989015;28;20026;-65
2023/07/02 04:22:37;;;;;;;13.30;4.72;;;;;;;;;;4983570;28;20022;-66
2023/07/02 04:25:02;;;;;;;13.38;4.90;;;;;;;;;;4985885;28;20035;-65
2023/07/02 04:27:27;;;;;;;16.48;5.20;;;;;;;;;;4994802;28;20019;-65
2023/07/02 04:29:53;;;;;;;13.95;5.68;;;;;;;;;;4990770;28;20027;-65
2023/07/02 04:32:19;;;;;;;15.38;5.13;;;;;;;;;;4991703;28;20030;-65
2023/07/02 04:34:44;;;;;;;18.95;5.50;;;;;;;;;;4984352;28;20482;-65
2023/07/02 04:37:09;;;;;;;14.88;5.32;;;;;;;;;;4991391;28;20027;-65
2023/07/02 04:39:35;;;;;;;16.38;5.63;;;;;;;;;;4985002;28;20018;-65
2023/07/02 04:42:00;;;;;;;16.90;5.63;;;;;;;;;;4982365;28;20384;-65
2023/07/02 04:44:29;;;;;;;16.02;5.35;;;;;;;;;;4992647;28;20537;-65
2023/07/02 04:47:01;;;;;;;13.80;5.10;;;;;;;;;;4989204;28;20069;-65
2023/07/02 04:49:27;;;;;;;17.83;5.55;;;;;;;;;;4993226;28;20061;-66
2023/07/02 04:51:53;;;;;;;18.90;5.15;;;;;;;;;;4983939;28;20479;-66
2023/07/02 04:54:19;;;;;;;17.55;5.57;;;;;;;;;;4994381;28;20018;-66
2023/07/02 04:56:44;;;;;;;17.70;5.35;;;;;;;;;;4991157;28;20105;-65
2023/07/02 04:59:10;;;;;;;20.20;5.45;;;;;;;;;;4977882;28;20106;-66
2023/07/02 05:01:35;;;;;;;17.35;6.75;;;;;;;;;;4989191;28;20023;-65
2023/07/02 05:04:00;;;;;;;18.30;6.22;;;;;;;;;;4975730;28;20070;-66
2023/07/02 05:06:25;;;;;;;19.48;6.10;;;;;;;;;;4982736;28;20019;-65
2023/07/02 05:08:52;;;;;;;16.35;5.72;;;;;;;;;;4993282;28;20076;-64
2023/07/02 05:11:17;;;;;;;16.02;5.80;;;;;;;;;;4979225;28;20395;-65
2023/07/02 05:13:43;;;;;;;20.52;5.95;;;;;;;;;;4977375;28;20031;-65
2023/07/02 05:16:08;;;;;;;20.08;6.20;;;;;;;;;;4986898;28;20478;-65
2023/07/02 05:18:33;;;;;;;18.17;5.03;;;;;;;;;;4993979;28;20023;-65
2023/07/02 05:20:58;;;;;;;13.55;5.30;;;;;;;;;;4980644;28;20027;-66
2023/07/02 05:23:24;;;;;;;16.83;5.30;;;;;;;;;;4978819;28;20046;-65
2023/07/02 05:25:49;;;;;;;18.85;5.30;;;;;;;;;;4979762;28;20477;-65
2023/07/02 05:28:14;;;;;;;16.25;6.15;;;;;;;;;;4976091;28;20415;-65
2023/07/02 05:30:40;;;;;;;12.73;4.85;;;;;;;;;;4987502;28;20054;-65
2023/07/02 05:33:05;;;;;;;16.70;5.70;;;;;;;;;;4986298;28;20098;-65
2023/07/02 05:35:30;;;;;;;16.30;5.70;;;;;;;;;;4992871;28;20372;-65
2023/07/02 05:37:56;;;;;;;16.85;5.60;;;;;;;;;;4976530;28;20126;-64
2023/07/02 05:40:21;;;;;;;23.65;6.75;;;;;;;;;;4988657;28;20022;-64
2023/07/02 05:42:46;;;;;;;19.52;6.28;;;;;;;;;;4987177;28;20110;-64
2023/07/02 05:45:11;;;;;;;21.90;6.50;;;;;;;;;;4990280;28;20011;-65
2023/07/02 05:47:37;;;;;;;19.38;5.97;;;;;;;;;;4985612;28;20479;-65
2023/07/02 05:50:02;;;;;;;20.98;6.32;;;;;;;;;;4994648;28;20058;-65
2023/07/02 05:52:27;;;;;;;17.35;5.85;;;;;;;;;;4994248;28;20461;-65
2023/07/02 05:54:53;;;;;;;17.77;6.13;;;;;;;;;;4993469;28;20026;-64
2023/07/02 05:57:18;;;;;;;16.35;6.47;;;;;;;;;;4992751;28;20038;-64
2023/07/02 05:59:43;;;;;;;17.25;5.55;;;;;;;;;;4991558;28;20018;-65
2023/07/02 06:02:09;;;;;;;18.33;5.95;;;;;;;;;;4993443;28;20030;-65
2023/07/02 06:04:34;;;;;;;17.45;5.45;;;;;;;;;;4993899;28;20046;-65
2023/07/02 06:06:59;;;;;;;19.30;5.93;;;;;;;;;;4990356;28;20398;-65
2023/07/02 06:09:24;;;;;;;21.45;6.75;;;;;;;;;;4993243;28;20027;-65
2023/07/02 06:11:50;;;;;;;17.15;5.95;;;;;;;;;;4993176;28;20010;-66
2023/07/02 06:14:15;;;;;;;22.75;6.50;;;;;;;;;;4992527;28;20029;-65
2023/07/02 06:16:41;;;;;;;18.00;5.80;;;;;;;;;;4992404;28;20077;-65
2023/07/02 06:19:06;;;;;;;16.95;6.55;;;;;;;;;;4993770;28;20043;-65
2023/07/02 06:21:32;;;;;;;18.73;5.22;;;;;;;;;;4993283;28;20363;-65
2023/07/02 06:23:58;;;;;;;16.65;6.32;;;;;;;;;;4993639;28;20034;-65
2023/07/02 06:26:23;;;;;;;20.67;6.22;;;;;;;;;;4989391;28;20034;-65
2023/07/02 06:28:49;;;;;;;18.15;5.65;;;;;;;;;;4991907;28;20022;-65
2023/07/02 06:31:14;;;;;;;17.92;6.15;;;;;;;;;;4991618;28;20039;-65
2023/07/02 06:33:40;;;;;;;19.98;6.25;;;;;;;;;;4991189;28;20022;-65
2023/07/02 06:36:05;;;;;;;18.85;6.30;;;;;;;;;;4993680;28;20030;-65
2023/07/02 06:38:31;;;;;;;17.50;5.90;;;;;;;;;;4993303;28;20106;-65
2023/07/02 06:40:56;;;;;;;17.95;6.72;;;;;;;;;;4992266;28;20037;-65
2023/07/02 06:43:21;;;;;;;18.08;5.75;;;;;;;;;;4991559;28;20025;-65
2023/07/02 06:45:47;;;;;;;19.85;6.43;;;;;;;;;;4990920;28;20691;-64
2023/07/02 06:48:14;;;;;;;24.05;6.63;;;;;;;;;;4992980;28;20038;-64
2023/07/02 06:50:42;;;;;;;16.48;4.72;;;;;;;;;;4990446;28;20034;-64
2023/07/02 06:53:07;;;;;;;15.98;5.38;;;;;;;;;;4985679;28;20117;-65
2023/07/02 06:55:33;;;;;;;16.40;6.05;;;;;;;;;;4989987;28;20535;-65
2023/07/02 06:57:58;;;;;;;18.38;5.80;;;;;;;;;;4991886;28;20030;-65
2023/07/02 07:00:23;;;;;;;20.13;5.75;;;;;;;;;;4991944;28;20030;-65
2023/07/02 07:02:49;;;;;;;20.23;5.80;;;;;;;;;;4989977;28;20097;-65
2023/07/02 07:05:14;;;;;;;20.10;6.10;;;;;;;;;;4989879;28;20053;-65
2023/07/02 07:07:39;;;;;;;19.95;5.68;;;;;;;;;;4992660;28;20438;-65
2023/07/02 07:10:05;;;;;;;17.35;5.78;;;;;;;;;;4992175;28;20065;-66
2023/07/02 07:12:30;;;;;;;13.18;4.78;;;;;;;;;;4990707;28;20029;-66
2023/07/02 07:14:56;;;;;;;17.67;6.05;;;;;;;;;;4991302;28;20034;-65
2023/07/02 07:17:21;;;;;;;14.65;4.32;;;;;;;;;;4991383;28;20033;-65
2023/07/02 07:19:46;;;;;;;14.95;4.78;;;;;;;;;;4993386;28;20025;-66
2023/07/02 07:22:12;;;;;;;13.48;4.78;;;;;;;;;;4988628;28;20026;-66
2023/07/02 07:24:37;;;;;;;13.02;4.60;;;;;;;;;;4985725;28;20429;-66
2023/07/02 07:27:02;;;;;;;15.68;5.25;;;;;;;;;;4990843;28;20018;-66
2023/07/02 07:29:28;;;;;;;17.92;4.88;;;;;;;;;;4991524;28;20022;-66
2023/07/02 07:31:54;;;;;;;13.05;4.82;;;;;;;;;;4985631;28;20065;-66
2023/07/02 07:34:19;;;;;;;16.02;5.57;;;;;;;;;;4991937;28;20026;-66
2023/07/02 07:36:45;;;;;;;10.40;3.70;;;;;;;;;;4992052;28;20360;-66
2023/07/02 07:39:10;;;;;;;13.55;4.28;;;;;;;;;;4993470;28;20027;-66
2023/07/02 07:41:35;;;;;;;14.82;4.97;;;;;;;;;;4993782;28;20483;-65
2023/07/02 07:44:01;;;;;;;12.23;4.50;;;;;;;;;;4990005;28;20014;-66
2023/07/02 07:46:26;;;;;;;15.65;5.10;;;;;;;;;;4992482;28;20045;-66
2023/07/02 07:48:52;;;;;;;17.17;5.50;;;;;;;;;;4991040;28;20077;-66
2023/07/02 07:51:17;;;;;;;16.13;5.05;;;;;;;;;;4989177;28;20105;-66
2023/07/02 07:53:42;;;;;;;13.95;4.53;;;;;;;;;;4990960;28;20014;-67
2023/07/02 07:56:08;;;;;;;14.48;4.93;;;;;;;;;;4974277;28;20033;-67
2023/07/02 07:58:33;;;;;;;17.45;5.50;;;;;;;;;;4980390;28;20542;-66
2023/07/02 08:00:58;;;;;;;16.98;4.50;;;;;;;;;;4982786;28;20029;-67
2023/07/02 08:03:24;;;;;;;13.82;4.72;;;;;;;;;;4992884;28;20052;-67
2023/07/02 08:05:49;;;;;;;19.30;5.88;;;;;;;;;;4991508;28;20029;-66
2023/07/02 08:08:14;;;;;;;12.85;4.10;;;;;;;;;;4992486;28;20029;-66
2023/07/02 08:10:39;;;;;;;19.23;6.00;;;;;;;;;;4994938;28;20015;-66
2023/07/02 08:13:05;;;;;;;10.13;3.80;;;;;;;;;;4994767;28;20018;-66
2023/07/02 08:15:30;;;;;;;12.02;4.60;;;;;;;;;;4996942;28;20474;-66
2023/07/02 08:17:58;;;;;;;13.95;4.50;;;;;;;;;;4994696;28;20019;-67
2023/07/02 08:20:23;;;;;;;14.85;5.13;;;;;;;;;;4996559;28;20073;-67
2023/07/02 08:22:51;;;;;;;16.70;5.05;;;;;;;;;;4996245;28;20018;-67
2023/07/02 08:25:17;;;;;;;12.35;3.72;;;;;;;;;;4995705;28;20033;-67
2023/07/02 08:27:42;;;;;;;13.77;5.00;;;;;;;;;;4996263;28;20023;-66
2023/07/02 08:30:08;;;;;;;13.18;4.53;;;;;;;;;;4995606;28;20019;-67
2023/07/02 08:32:33;;;;;;;19.08;5.15;;;;;;;;;;4996709;28;20479;-66
2023/07/02 08:34:58;;;;;;;11.05;3.85;;;;;;;;;;4994864;28;20030;-66
2023/07/02 08:37:23;;;;;;;14.95;5.22;;;;;;;;;;4996228;28;20031;-66
2023/07/02 08:39:49;;;;;;;16.20;5.28;;;;;;;;;;4996605;28;20030;-66
2023/07/02 08:42:15;;;;;;;10.57;4.10;;;;;;;;;;4996515;28;20466;-66
2023/07/02 08:44:41;;;;;;;17.20;5.53;;;;;;;;;;4995512;28;20022;-65
2023/07/02 08:47:06;;;;;;;15.75;4.55;;;;;;;;;;4996478;28;20018;-66
2023/07/02 08:49:31;;;;;;;11.50;4.55;;;;;;;;;;4996380;28;20093;-67
2023/07/02 08:51:57;;;;;;;9.75;4.00;;;;;;;;;;4995689;28;20382;-67
2023/07/02 08:54:23;;;;;;;18.83;4.88;;;;;;;;;;4995717;28;20015;-67
2023/07/02 08:56:48;;;;;;;13.35;4.70;;;;;;;;;;4995815;28;20029;-67
2023/07/02 08:59:13;;;;;;;11.65;4.63;;;;;;;;;;4995158;28;20045;-66
2023/07/02 09:01:49;;;;;;;11.07;4.25;;;;;;;;;;4995820;28;20466;-66
2023/07/02 09:04:18;;;;;;;13.02;4.70;;;;;;;;;;4995764;28;20053;-66
2023/07/02 09:06:43;;;;;;;14.70;5.00;;;;;;;;;;4995487;28;20382;-66
2023/07/02 09:09:09;;;;;;;15.13;5.00;;;;;;;;;;4996046;28;20026;-67
2023/07/02 09:11:34;;;;;;;11.20;4.03;;;;;;;;;;4996002;28;20045;-66
2023/07/02 09:14:00;;;;;;;13.38;4.63;;;;;;;;;;4995213;28;20022;-66
2023/07/02 09:16:29;;;;;;;14.13;4.88;;;;;;;;;;4995953;28;20526;-67
2023/07/02 09:18:58;;;;;;;14.05;4.70;;;;;;;;;;4995589;28;20081;-66
2023/07/02 09:21:25;;;;;;;17.58;4.65;;;;;;;;;;4994548;28;20014;-67
2023/07/02 09:23:50;;;;;;;12.65;4.40;;;;;;;;;;4995517;28;20022;-67
2023/07/02 09:26:19;;;;;;;13.60;5.35;;;;;;;;;;4994978;28;20018;-67
2023/07/02 09:28:44;;;;;;;15.50;5.88;;;;;;;;;;4995286;28;20034;-66
2023/07/02 09:31:09;;;;;;;16.45;5.03;;;;;;;;;;4994643;28;20027;-66
2023/07/02 09:33:35;;;;;;;16.77;4.72;;;;;;;;;;4995288;28;20498;-66
2023/07/02 09:36:00;;;;;;;16.85;5.15;;;;;;;;;;4995152;28;20026;-67
2023/07/02 09:38:25;;;;;;;17.92;5.20;;;;;;;;;;4993605;28;20027;-66
2023/07/02 09:40:51;;;;;;;15.90;4.50;;;;;;;;;;4994152;28;20089;-67
2023/07/02 09:43:17;;;;;;;15.18;4.35;;;;;;;;;;4995435;28;20011;-67
2023/07/02 09:45:46;;;;;;;14.55;5.43;;;;;;;;;;4994115;28;20026;-66
2023/07/02 09:48:13;;;;;;;11.65;4.00;;;;;;;;;;4994920;28;20026;-67
2023/07/02 09:50:40;;;;;;;11.07;3.97;;;;;;;;;;4994534;28;20025;-67
2023/07/02 09:53:05;;;;;;;14.70;4.35;;;;;;;;;;4994800;28;20026;-67
2023/07/02 09:55:31;;;;;;;10.95;3.47;;;;;;;;;;4994897;28;20093;-67
2023/07/02 09:57:57;;;;;;;13.85;4.15;;;;;;;;;;4993534;28;20080;-67
2023/07/02 10:00:22;;;;;;;14.52;4.38;;;;;;;;;;4992350;28;20463;-66
2023/07/02 10:02:50;;;;;;;13.85;4.18;;;;;;;;;;4994350;28;20026;-66
2023/07/02 10:05:28;;;;;;;12.98;4.63;;;;;;;;;;4994506;28;20130;-66
2023/07/02 10:07:54;;;;;;;13.10;4.63;;;;;;;;;;4994992;28;20426;-67
2023/07/02 10:10:26;;;;;;;16.25;5.15;;;;;;;;;;4993700;28;20030;-67
2023/07/02 10:12:51;;;;;;;14.02;4.95;;;;;;;;;;4994525;28;20022;-67
2023/07/02 10:15:24;;;;;;;10.80;4.20;;;;;;;;;;4993286;28;20037;-67
2023/07/02 10:17:59;;;;;;;11.80;4.35;;;;;;;;;;4993441;28;20034;-68
2023/07/02 10:20:38;;;;;;;12.43;4.18;;;;;;;;;;4994281;28;20014;-67
2023/07/02 10:23:04;;;;;;;15.20;3.95;;;;;;;;;;4993870;28;20025;-67
2023/07/02 10:25:37;;;;;;;9.95;4.00;;;;;;;;;;4994299;28;20023;-66
2023/07/02 10:28:13;;;;;;;12.00;4.00;;;;;;;;;;4994245;28;20026;-67
2023/07/02 10:30:39;;;;;;;8.35;3.08;;;;;;;;;;4993502;28;20476;-67
2023/07/02 10:33:11;;;;;;;13.32;4.30;;;;;;;;;;4993576;28;20094;-67
2023/07/02 10:35:36;;;;;;;12.07;3.65;;;;;;;;;;4994371;28;20053;-67
2023/07/02 10:38:02;;;;;;;8.23;2.78;;;;;;;;;;4993010;28;20046;-67
2023/07/02 10:40:27;;;;;;;10.98;3.00;;;;;;;;;;4992707;28;20151;-72
2023/07/02 10:42:53;;;;;;;9.63;3.15;;;;;;;;;;4992936;28;20116;-73
2023/07/02 10:45:19;;;;;;;7.47;2.72;;;;;;;;;;4993163;28;20030;-73
2023/07/02 10:47:44;;;;;;;8.20;3.40;;;;;;;;;;4991328;28;20026;-72
2023/07/02 10:50:19;;;;;;;11.50;3.58;;;;;;;;;;4991630;28;20386;-73
2023/07/02 10:52:45;;;;;;;8.50;3.30;;;;;;;;;;4992185;28;20026;-72
2023/07/02 10:55:10;;;;;;;8.45;2.78;;;;;;;;;;4989079;28;20025;-72
2023/07/02 10:57:35;;;;;;;9.38;2.78;;;;;;;;;;4993737;28;20026;-72
2023/07/02 11:00:07;;;;;;;8.68;2.95;;;;;;;;;;4988559;28;20022;-72
2023/07/02 11:02:36;;;;;;;10.00;2.97;;;;;;;;;;4985756;28;20094;-72
2023/07/02 11:05:02;;;;;;;7.53;2.78;;;;;;;;;;4980299;28;20053;-73
2023/07/02 11:07:28;;;;;;;11.73;3.13;;;;;;;;;;4985608;28;20029;-73
2023/07/02 11:09:53;;;;;;;9.80;2.85;;;;;;;;;;4989231;28;20114;-73
2023/07/02 11:12:26;;;;;;;8.48;2.53;;;;;;;;;;4991537;28;20379;-72
2023/07/02 11:14:52;;;;;;;8.48;3.20;;;;;;;;;;4992691;28;20021;-73
2023/07/02 11:17:24;;;;;;;7.32;2.88;;;;;;;;;;4991559;28;20022;-73
2023/07/02 11:19:50;;;;;;;8.82;3.15;;;;;;;;;;4985190;28;20110;-73
2023/07/02 11:22:15;;;;;;;11.30;3.13;;;;;;;;;;4993606;28;20097;-73
2023/07/02 11:24:40;;;;;;;10.93;3.88;;;;;;;;;;4992343;28;20081;-73
2023/07/02 11:27:06;;;;;;;11.57;3.42;;;;;;;;;;4993236;28;20027;-73
2023/07/02 11:29:32;;;;;;;8.07;3.30;;;;;;;;;;4992723;28;20073;-72
2023/07/02 11:32:07;;;;;;;10.73;3.53;;;;;;;;;;4992568;28;20398;-73
2023/07/02 11:34:32;;;;;;;8.85;3.72;;;;;;;;;;4993550;28;20107;-72
2023/07/02 11:36:58;;;;;;;7.90;2.90;;;;;;;;;;4991498;28;20026;-73
2023/07/02 11:39:23;;;;;;;7.75;2.85;;;;;;;;;;4992903;28;20102;-73
2023/07/02 11:41:50;;;;;;;7.65;3.15;;;;;;;;;;4992995;28;20038;-73
2023/07/02 11:44:15;;;;;;;8.45;3.50;;;;;;;;;;4994066;28;20023;-73
2023/07/02 11:46:40;;;;;;;8.90;3.58;;;;;;;;;;4996418;28;20037;-73
2023/07/02 11:49:08;;;;;;;9.68;3.78;;;;;;;;;;4996590;28;20399;-73
2023/07/02 11:51:34;;;;;;;9.88;3.63;;;;;;;;;;4979894;28;20026;-73
2023/07/02 11:54:00;;;;;;;11.80;4.13;;;;;;;;;;4981859;28;20029;-73
2023/07/02 11:56:25;;;;;;;9.18;3.30;;;;;;;;;;4996133;28;20467;-73
2023/07/02 11:58:50;;;;;;;14.55;3.30;;;;;;;;;;4997010;28;20030;-73
2023/07/02 12:01:15;;;;;;;8.68;2.90;;;;;;;;;;4995763;28;20019;-73
2023/07/02 12:03:41;;;;;;;10.40;2.47;;;;;;;;;;4996472;28;20388;-72
2023/07/02 12:06:06;;;;;;;11.35;3.97;;;;;;;;;;4996422;28;20054;-72
2023/07/02 12:08:31;;;;;;;9.77;3.00;;;;;;;;;;4995566;28;20108;-72
2023/07/02 12:10:56;;;;;;;10.38;3.03;;;;;;;;;;4995958;28;20038;-72
2023/07/02 12:13:22;;;;;;;8.52;2.70;;;;;;;;;;4996408;28;20360;-72
2023/07/02 12:15:47;;;;;;;8.10;2.60;;;;;;;;;;4996117;28;20375;-72
2023/07/02 12:18:13;;;;;;;12.38;3.45;;;;;;;;;;4996957;28;20034;-72
2023/07/02 12:20:42;;;;;;;10.00;2.83;;;;;;;;;;4996552;28;20462;-72
2023/07/02 12:23:07;;;;;;;5.97;2.20;;;;;;;;;;4988033;28;20104;-72
2023/07/02 12:25:32;;;;;;;8.75;2.38;;;;;;;;;;4996433;28;20430;-72
2023/07/02 12:27:58;;;;;;;7.97;2.70;;;;;;;;;;4987202;28;20047;-72
2023/07/02 12:30:23;;;;;;;12.57;3.20;;;;;;;;;;4985336;28;20034;-72
2023/07/02 12:32:48;;;;;;;9.50;2.72;;;;;;;;;;4993002;28;20027;-72
2023/07/02 12:35:14;;;;;;;9.07;2.55;;;;;;;;;;4979060;28;20031;-72
2023/07/02 12:37:46;;;;;;;10.65;2.80;;;;;;;;;;4991286;28;20034;-72
2023/07/02 12:40:12;;;;;;;8.85;3.00;;;;;;;;;;4994864;28;20035;-72
2023/07/02 12:42:37;;;;;;;8.23;2.65;;;;;;;;;;4980713;28;20039;-72
2023/07/02 12:45:03;;;;;;;10.55;3.08;;;;;;;;;;4976710;28;20019;-72
2023/07/02 12:47:28;;;;;;;5.40;2.22;;;;;;;;;;4993692;28;20149;-72
2023/07/02 12:49:54;;;;;;;9.82;3.00;;;;;;;;;;4994990;28;20026;-72
2023/07/02 12:52:19;;;;;;;7.20;2.80;;;;;;;;;;4996117;28;20049;-72
2023/07/02 12:54:44;;;;;;;7.13;2.83;;;;;;;;;;4990856;28;20031;-72
2023/07/02 12:57:10;;;;;;;8.50;3.00;;;;;;;;;;4981591;28;20027;-73
2023/07/02 12:59:35;;;;;;;8.35;2.65;;;;;;;;;;4994071;28;20069;-73
2023/07/02 13:02:00;;;;;;;10.18;3.28;;;;;;;;;;4992807;28;20025;-72
2023/07/02 13:04:25;;;;;;;8.38;2.92;;;;;;;;;;4994148;28;20046;-72
2023/07/02 13:06:51;;;;;;;9.55;3.10;;;;;;;;;;4988479;28;20046;-72
2023/07/02 13:09:16;;;;;;;8.85;3.22;;;;;;;;;;4990746;28;20029;-73
2023/07/02 13:11:41;;;;;;;9.23;2.90;;;;;;;;;;4981090;28;20101;-73
2023/07/02 13:14:06;;;;;;;9.95;3.05;;;;;;;;;;4994545;28;20046;-73
2023/07/02 13:16:32;;;;;;;8.02;2.97;;;;;;;;;;4994771;28;20076;-72
2023/07/02 13:18:57;;;;;;;9.60;2.95;;;;;;;;;;4994479;28;20026;-73
2023/07/02 13:21:22;;;;;;;9.02;3.53;;;;;;;;;;4995528;28;20022;-73
2023/07/02 13:23:48;;;;;;;7.70;2.78;;;;;;;;;;4987998;28;20113;-73
2023/07/02 13:26:13;;;;;;;6.40;2.45;;;;;;;;;;4991105;28;20526;-73
2023/07/02 13:28:38;;;;;;;7.82;2.25;;;;;;;;;;4993485;28;20025;-73
2023/07/02 13:31:04;;;;;;;7.88;2.85;;;;;;;;;;4991747;28;20041;-73
2023/07/02 13:33:30;;;;;;;6.68;2.50;;;;;;;;;;4993307;28;20026;-72
2023/07/02 13:35:56;;;;;;;7.00;2.60;;;;;;;;;;4990930;28;20447;-73
2023/07/02 13:38:21;;;;;;;6.80;2.75;;;;;;;;;;4986940;28;20081;-72
2023/07/02 13:40:46;;;;;;;7.32;2.67;;;;;;;;;;4984559;28;20015;-72
2023/07/02 13:43:12;;;;;;;7.55;2.83;;;;;;;;;;4990876;28;20498;-72
2023/07/02 13:45:37;;;;;;;9.52;3.20;;;;;;;;;;4994064;28;20445;-72
2023/07/02 13:48:02;;;;;;;8.80;2.92;;;;;;;;;;4994132;28;20487;-72
2023/07/02 13:50:28;;;;;;;8.27;3.10;;;;;;;;;;4994631;28;20033;-73
2023/07/02 13:52:53;;;;;;;8.82;2.58;;;;;;;;;;4992393;28;20026;-72
2023/07/02 13:55:18;;;;;;;7.72;2.80;;;;;;;;;;4993747;28;20026;-72
2023/07/02 13:57:44;;;;;;;6.82;2.38;;;;;;;;;;4993810;28;20022;-72
2023/07/02 14:00:09;;;;;;;9.98;2.58;;;;;;;;;;4994741;28;20587;-72
2023/07/02 14:02:35;;;;;;;6.63;2.80;;;;;;;;;;4993351;28;20093;-72
2023/07/02 14:05:01;;;;;;;7.60;2.78;;;;;;;;;;4992221;28;20072;-72
2023/07/02 14:07:26;;;;;;;9.35;2.80;;;;;;;;;;4993382;28;20026;-72
2023/07/02 14:09:51;;;;;;;10.35;3.00;;;;;;;;;;4989059;28;20023;-72
2023/07/02 14:12:16;;;;;;;9.75;2.60;;;;;;;;;;4991124;28;20030;-72
2023/07/02 14:14:42;;;;;;;7.80;2.40;;;;;;;;;;4992771;28;20018;-72
2023/07/02 14:17:07;;;;;;;7.85;2.80;;;;;;;;;;4993212;28;20022;-72
2023/07/02 14:19:33;;;;;;;7.80;2.30;;;;;;;;;;4984639;28;20026;-72
2023/07/02 14:21:58;;;;;;;9.18;2.80;;;;;;;;;;4990192;28;20038;-72
2023/07/02 14:24:23;;;;;;;7.28;2.53;;;;;;;;;;4992391;28;20025;-72
2023/07/02 14:26:49;;;;;;;6.03;2.53;;;;;;;;;;4992327;28;20463;-72
2023/07/02 14:29:14;;;;;;;8.98;3.15;;;;;;;;;;4989629;28;20030;-72